Time;durP1;ratioP1;P1;durP2;ratioP2;P2;SDS_P1;SDS_P2;PMS_P1;PMS_P2;Temp;Humidity;BMP_temperature;BMP_pressure;BME280_temperature;BME280_humidity;BME280_pressure;Samples;Min_cycle;Max_cycle;Signal;HPM_P1;HPM_P2
2021/12/25 00:02:15;;;;;;;;;0.00;0.00;13.30;99.90;;;;;;5054544;28;11024;-50
2021/12/25 00:04:45;;;;;;;;;1.00;1.00;13.20;99.90;;;;;;5049530;28;11009;-51
2021/12/25 00:07:19;;;;;;;;;1.00;1.00;13.30;99.90;;;;;;5052403;28;11057;-53
2021/12/25 00:09:51;;;;;;;;;2.00;0.75;13.30;99.90;;;;;;5049627;28;10960;-49
2021/12/25 00:12:21;;;;;;;;;0.00;0.00;13.30;99.90;;;;;;5046134;28;11095;-50
2021/12/25 00:14:52;;;;;;;;;0.00;0.00;13.30;99.90;;;;;;5048427;28;11024;-55
2021/12/25 00:17:23;;;;;;;;;0.00;0.00;13.30;99.90;;;;;;5052925;28;10984;-51
2021/12/25 00:19:56;;;;;;;;;2.00;0.00;13.30;99.90;;;;;;5018754;28;10902;-50
2021/12/25 00:22:28;;;;;;;;;0.00;0.00;13.30;99.90;;;;;;5053870;28;10940;-51
2021/12/25 00:24:58;;;;;;;;;0.00;0.00;13.30;99.90;;;;;;5033493;28;11522;-53
2021/12/25 00:35:17;;;;;;;;;0.50;0.00;13.30;99.90;;;;;;5053397;28;10952;-52
2021/12/25 00:37:49;;;;;;;;;0.00;0.00;13.30;99.90;;;;;;5052960;28;10867;-51
2021/12/25 00:40:22;;;;;;;;;0.00;0.00;13.30;99.90;;;;;;5056178;28;11178;-48
2021/12/25 00:42:52;;;;;;;;;0.00;0.00;13.30;99.90;;;;;;5054259;28;10904;-48
2021/12/25 00:45:22;;;;;;;;;0.00;0.00;13.30;99.90;;;;;;5052847;28;11064;-52
2021/12/25 00:47:53;;;;;;;;;0.00;0.00;13.30;99.90;;;;;;5048107;28;11089;-50
2021/12/25 00:50:24;;;;;;;;;0.00;0.00;13.30;99.90;;;;;;5056245;28;10850;-49
2021/12/25 00:52:55;;;;;;;;;0.00;0.00;13.30;99.90;;;;;;5052374;28;11123;-48
2021/12/25 00:55:26;;;;;;;;;1.75;0.00;13.30;99.90;;;;;;5050110;28;10894;-47
2021/12/25 00:57:57;;;;;;;;;0.00;0.00;13.30;99.90;;;;;;5038489;28;11150;-52
2021/12/25 01:00:28;;;;;;;;;0.25;0.25;13.30;99.90;;;;;;5053303;28;11337;-51
2021/12/25 01:03:00;;;;;;;;;0.00;0.00;13.20;99.90;;;;;;5036965;28;10935;-53
2021/12/25 01:05:31;;;;;;;;;0.00;0.00;13.30;99.90;;;;;;5036790;28;11729;-50
2021/12/25 01:08:05;;;;;;;;;0.00;0.00;13.30;99.90;;;;;;5032377;28;11133;-52
2021/12/25 01:10:38;;;;;;;;;0.00;0.00;13.30;99.90;;;;;;5036539;28;11030;-49
2021/12/25 01:13:22;;;;;;;;;0.00;0.00;13.30;99.90;;;;;;5037763;28;11211;-49
2021/12/25 01:24:57;;;;;;;;;0.25;0.25;13.30;99.90;;;;;;5034398;28;11186;-50
2021/12/25 01:30:15;;;;;;;;;0.00;0.00;13.30;99.90;;;;;;5004889;28;11173;-48
2021/12/25 01:33:24;;;;;;;;;0.00;0.00;13.30;99.90;;;;;;5051735;28;11365;-51
2021/12/25 01:47:50;;;;;;;;;0.00;0.00;13.30;99.90;;;;;;5053860;28;11341;-50
2021/12/25 01:50:27;;;;;;;;;0.00;0.00;13.30;99.90;;;;;;5052830;28;11947;-51
2021/12/25 01:52:58;;;;;;;;;0.00;0.00;13.30;99.90;;;;;;5047337;28;11368;-52
2021/12/25 01:55:31;;;;;;;;;0.00;0.00;13.20;99.90;;;;;;5036635;28;11091;-49
2021/12/25 01:58:06;;;;;;;;;0.75;0.75;13.10;99.90;;;;;;5050739;28;11388;-52
2021/12/25 02:00:46;;;;;;;;;0.00;0.00;13.10;99.90;;;;;;5034276;28;11185;-53
2021/12/25 02:03:21;;;;;;;;;0.25;0.25;13.10;99.90;;;;;;5035279;28;12100;-52
2021/12/25 02:05:52;;;;;;;;;0.00;0.00;13.00;99.90;;;;;;5050821;28;11372;-50
2021/12/25 02:08:30;;;;;;;;;0.00;0.00;13.10;99.90;;;;;;5031973;28;11231;-51
2021/12/25 02:11:04;;;;;;;;;0.75;0.75;13.10;99.90;;;;;;5051726;28;11403;-52
2021/12/25 02:13:43;;;;;;;;;2.00;2.00;13.10;99.90;;;;;;5033605;28;12179;-51
2021/12/25 02:16:20;;;;;;;;;1.00;1.00;13.10;99.90;;;;;;5050267;28;11376;-52
2021/12/25 02:19:07;;;;;;;;;3.00;2.00;13.10;99.90;;;;;;5033237;28;11444;-48
2021/12/25 02:21:45;;;;;;;;;0.75;0.75;13.10;99.90;;;;;;5032863;28;11425;-51
2021/12/25 02:24:16;;;;;;;;;1.00;1.00;13.10;99.90;;;;;;5036675;28;11387;-49
2021/12/25 02:26:46;;;;;;;;;1.00;1.00;13.10;99.90;;;;;;5046009;28;11360;-52
2021/12/25 02:29:25;;;;;;;;;2.00;1.75;13.00;99.90;;;;;;5057929;28;12093;-52
2021/12/25 02:31:56;;;;;;;;;1.00;1.00;13.00;99.90;;;;;;5028967;28;12888;-52
2021/12/25 02:34:28;;;;;;;;;1.50;1.50;13.00;99.90;;;;;;5052081;28;11553;-51
2021/12/25 02:37:00;;;;;;;;;0.00;0.00;13.00;99.90;;;;;;5033006;28;11390;-53
2021/12/25 02:39:33;;;;;;;;;1.00;1.00;13.00;99.90;;;;;;5033304;28;11428;-51
2021/12/25 02:42:04;;;;;;;;;3.50;2.00;13.00;99.90;;;;;;5036099;28;11403;-52
2021/12/25 02:44:34;;;;;;;;;1.00;1.00;13.00;99.90;;;;;;5034985;28;12897;-53
2021/12/25 02:47:10;;;;;;;;;1.00;1.00;13.00;99.90;;;;;;5052086;28;12072;-52
2021/12/25 02:49:40;;;;;;;;;1.50;1.50;12.90;99.90;;;;;;5033926;28;11361;-53
2021/12/25 02:52:13;;;;;;;;;1.00;1.00;12.90;99.90;;;;;;5031871;28;11339;-52
2021/12/25 02:54:46;;;;;;;;;0.00;0.00;12.90;99.90;;;;;;5033619;28;11809;-52
2021/12/25 02:57:18;;;;;;;;;5.00;1.00;12.80;99.90;;;;;;5032609;28;11395;-53
2021/12/25 02:59:48;;;;;;;;;0.00;0.00;12.90;99.90;;;;;;5052752;28;12324;-52
2021/12/25 03:02:19;;;;;;;;;1.00;1.00;12.80;99.90;;;;;;5048367;28;11380;-50
2021/12/25 03:04:50;;;;;;;;;0.00;0.00;12.90;99.90;;;;;;5031046;28;11362;-52
2021/12/25 03:07:22;;;;;;;;;1.00;1.00;12.90;99.90;;;;;;5031925;28;11354;-50
2021/12/25 03:09:56;;;;;;;;;0.25;0.25;12.90;99.90;;;;;;5034072;28;11370;-53
2021/12/25 03:12:36;;;;;;;;;1.00;1.00;12.90;99.90;;;;;;5045141;28;11366;-52
2021/12/25 03:15:15;;;;;;;;;0.50;0.50;12.90;99.90;;;;;;5052769;28;11395;-51
2021/12/25 03:17:46;;;;;;;;;0.00;0.00;12.90;99.90;;;;;;5032877;28;11414;-49
2021/12/25 03:20:17;;;;;;;;;1.00;1.00;12.80;99.90;;;;;;5027903;28;12150;-49
2021/12/25 03:22:48;;;;;;;;;1.75;1.00;12.80;99.90;;;;;;5029843;28;11406;-51
2021/12/25 03:25:21;;;;;;;;;2.00;2.00;12.80;99.90;;;;;;5045259;28;11407;-52
2021/12/25 03:27:54;;;;;;;;;1.50;1.50;12.80;99.90;;;;;;5052689;28;11374;-49
2021/12/25 03:30:26;;;;;;;;;1.75;1.75;12.80;99.90;;;;;;5032514;28;11371;-52
2021/12/25 03:32:59;;;;;;;;;3.00;1.50;12.80;99.90;;;;;;5035634;28;11457;-50
2021/12/25 03:35:29;;;;;;;;;2.75;2.75;12.80;99.90;;;;;;5032659;28;11376;-52
2021/12/25 03:38:06;;;;;;;;;1.75;1.75;12.80;99.90;;;;;;5019787;28;11361;-52
2021/12/25 03:40:38;;;;;;;;;4.25;3.00;12.80;99.90;;;;;;5029572;28;12161;-54
2021/12/25 03:43:10;;;;;;;;;4.00;4.00;12.80;99.90;;;;;;5033469;28;11436;-54
2021/12/25 03:45:40;;;;;;;;;4.50;1.25;12.80;99.90;;;;;;5034849;28;11385;-51
2021/12/25 03:59:16;;;;;;;;;1.00;1.00;12.70;99.90;;;;;;5049445;28;11353;-52
2021/12/25 04:01:54;;;;;;;;;0.00;0.00;12.70;99.90;;;;;;5035557;28;11388;-49
2021/12/25 04:04:37;;;;;;;;;1.00;1.00;12.70;99.90;;;;;;5047589;28;11421;-53
2021/12/25 04:09:53;;;;;;;;;1.00;1.00;12.70;99.90;;;;;;5045563;28;11437;-48
2021/12/25 04:12:25;;;;;;;;;0.75;0.75;12.70;99.90;;;;;;5051666;28;11497;-51
2021/12/25 04:14:57;;;;;;;;;0.00;0.00;12.60;99.90;;;;;;5027644;28;12570;-51
2021/12/25 04:17:30;;;;;;;;;1.50;1.50;12.60;99.90;;;;;;5035983;28;12135;-52
2021/12/25 04:20:04;;;;;;;;;1.75;1.75;12.60;99.90;;;;;;5043754;28;11495;-52
2021/12/25 04:22:46;;;;;;;;;1.00;1.00;12.60;99.90;;;;;;5051651;28;11399;-48
2021/12/25 04:25:22;;;;;;;;;0.50;0.50;12.60;99.90;;;;;;5029322;28;11365;-53
2021/12/25 04:27:56;;;;;;;;;1.00;1.00;12.60;99.90;;;;;;5048456;28;11451;-52
2021/12/25 04:30:40;;;;;;;;;0.25;0.25;12.60;99.90;;;;;;5043828;28;11414;-52
2021/12/25 04:42:41;;;;;;;;;0.75;0.75;12.60;99.90;;;;;;5049009;28;11377;-52
2021/12/25 05:04:37;;;;;;;;;1.00;1.00;12.50;99.90;;;;;;5035933;28;11408;-53
2021/12/25 05:07:16;;;;;;;;;0.00;0.00;12.50;99.90;;;;;;5048798;28;12385;-51
2021/12/25 05:09:46;;;;;;;;;0.00;0.00;12.50;99.90;;;;;;5032150;28;11514;-51
2021/12/25 05:12:18;;;;;;;;;0.00;0.00;12.50;99.90;;;;;;5041378;28;11501;-49
2021/12/25 05:14:50;;;;;;;;;1.00;1.00;12.50;99.90;;;;;;5035634;28;11418;-49
2021/12/25 05:17:21;;;;;;;;;0.50;0.50;12.50;99.90;;;;;;5055562;28;11353;-48
2021/12/25 05:19:53;;;;;;;;;1.00;1.00;12.50;99.90;;;;;;5036118;28;11562;-53
2021/12/25 05:22:23;;;;;;;;;0.50;0.50;12.50;99.90;;;;;;5051609;28;11397;-50
2021/12/25 05:24:53;;;;;;;;;0.75;0.75;12.50;99.90;;;;;;5033024;28;11400;-52
2021/12/25 05:27:24;;;;;;;;;1.00;1.00;12.50;99.90;;;;;;5051411;28;11414;-51
2021/12/25 05:29:55;;;;;;;;;0.75;0.75;12.50;99.90;;;;;;5036058;28;11370;-52
2021/12/25 05:32:37;;;;;;;;;1.75;1.75;12.50;99.90;;;;;;5035662;28;11358;-53
2021/12/25 05:35:24;;;;;;;;;1.75;1.75;12.50;99.90;;;;;;5052564;28;11364;-50
2021/12/25 05:38:19;;;;;;;;;2.00;2.00;12.50;99.90;;;;;;5039947;28;11359;-48
2021/12/25 05:41:11;;;;;;;;;2.25;2.00;12.50;99.90;;;;;;5052552;28;11409;-51
2021/12/25 05:43:41;;;;;;;;;1.75;1.75;12.50;99.90;;;;;;5029042;28;11366;-52
2021/12/25 05:46:20;;;;;;;;;1.00;1.00;12.50;99.90;;;;;;5017250;28;11405;-51
2021/12/25 05:48:51;;;;;;;;;1.00;1.00;12.50;99.90;;;;;;5039118;28;11420;-52
2021/12/25 05:51:32;;;;;;;;;1.00;1.00;12.50;99.90;;;;;;5047323;28;11362;-52
2021/12/25 05:54:29;;;;;;;;;1.00;1.00;12.50;99.90;;;;;;5047549;28;11385;-51
2021/12/25 05:57:33;;;;;;;;;1.75;1.75;12.50;99.90;;;;;;5036866;28;12110;-51
2021/12/25 06:00:32;;;;;;;;;1.00;0.25;12.50;99.90;;;;;;5046457;28;11346;-52
2021/12/25 06:03:03;;;;;;;;;0.50;0.50;12.50;99.90;;;;;;5030839;28;11392;-53
2021/12/25 06:05:40;;;;;;;;;2.00;2.00;12.50;99.90;;;;;;5052945;28;11363;-51
2021/12/25 06:08:11;;;;;;;;;1.75;1.75;12.50;99.90;;;;;;5031273;28;12601;-49
2021/12/25 06:10:45;;;;;;;;;2.00;2.00;12.40;99.90;;;;;;5021560;28;11463;-52
2021/12/25 06:13:19;;;;;;;;;1.00;1.00;12.40;99.90;;;;;;5031165;28;11444;-48
2021/12/25 06:15:54;;;;;;;;;2.00;2.00;12.40;99.90;;;;;;5036952;28;12126;-48
2021/12/25 06:18:44;;;;;;;;;2.00;2.00;12.40;99.90;;;;;;5051597;28;11380;-51
2021/12/25 06:21:21;;;;;;;;;1.50;1.50;12.40;99.90;;;;;;5032351;28;11386;-52
2021/12/25 06:24:15;;;;;;;;;2.00;1.75;12.40;99.90;;;;;;5039109;28;11443;-49
2021/12/25 06:27:00;;;;;;;;;2.00;2.00;12.40;99.90;;;;;;5026149;28;11384;-52
2021/12/25 06:29:54;;;;;;;;;3.00;3.00;12.40;99.90;;;;;;5016423;28;11371;-51
2021/12/25 06:32:56;;;;;;;;;4.25;3.00;12.40;99.90;;;;;;5033048;28;11432;-52
2021/12/25 06:35:46;;;;;;;;;4.00;2.50;12.40;99.90;;;;;;5056988;28;11479;-51
2021/12/25 06:38:25;;;;;;;;;2.50;2.50;12.40;99.90;;;;;;5035299;28;11435;-52
2021/12/25 06:41:24;;;;;;;;;2.50;2.50;12.40;99.90;;;;;;5034342;28;11478;-51
2021/12/25 06:43:54;;;;;;;;;1.00;1.00;12.30;99.90;;;;;;5037417;28;11425;-50
2021/12/25 06:46:47;;;;;;;;;3.00;3.00;12.30;99.90;;;;;;5055527;28;11392;-52
2021/12/25 06:49:17;;;;;;;;;4.25;3.50;12.30;99.90;;;;;;5031140;28;11378;-50
2021/12/25 06:52:21;;;;;;;;;3.50;3.50;12.30;99.90;;;;;;5032503;28;11377;-51
2021/12/25 06:55:15;;;;;;;;;3.75;3.75;12.30;99.90;;;;;;5012658;28;12457;-52
2021/12/25 06:58:04;;;;;;;;;4.00;4.00;12.30;99.90;;;;;;5054338;28;11407;-54
2021/12/25 07:00:35;;;;;;;;;4.00;4.00;12.30;99.90;;;;;;5032000;28;11480;-48
2021/12/25 07:03:08;;;;;;;;;3.00;3.00;12.30;99.90;;;;;;5051428;28;11451;-49
2021/12/25 07:05:56;;;;;;;;;4.50;4.50;12.40;99.90;;;;;;5055084;28;11578;-50
2021/12/25 07:08:39;;;;;;;;;5.00;4.00;12.30;99.90;;;;;;5037502;28;11371;-52
2021/12/25 07:11:38;;;;;;;;;2.00;2.00;12.30;99.90;;;;;;5048840;28;12831;-51
2021/12/25 07:14:16;;;;;;;;;5.00;4.00;12.30;99.90;;;;;;5048877;28;11412;-53
2021/12/25 07:16:52;;;;;;;;;4.00;4.00;12.30;99.90;;;;;;5054757;28;13101;-51
2021/12/25 07:19:40;;;;;;;;;4.00;2.00;12.30;99.90;;;;;;5058321;28;11370;-52
2021/12/25 07:22:29;;;;;;;;;4.00;2.00;12.30;99.90;;;;;;5054426;28;11337;-50
2021/12/25 07:25:09;;;;;;;;;2.00;2.00;12.30;99.90;;;;;;5029187;28;13230;-51
2021/12/25 07:28:08;;;;;;;;;2.75;2.75;12.30;99.90;;;;;;5006583;28;11407;-49
2021/12/25 07:30:40;;;;;;;;;2.00;2.00;12.30;99.90;;;;;;5052107;28;11395;-52
2021/12/25 07:33:10;;;;;;;;;3.00;3.00;12.30;99.90;;;;;;5035685;28;11383;-48
2021/12/25 07:35:45;;;;;;;;;2.75;2.00;12.30;99.90;;;;;;5041241;28;11432;-52
2021/12/25 07:38:18;;;;;;;;;2.75;1.00;12.30;99.90;;;;;;5051760;28;12210;-52
2021/12/25 07:40:49;;;;;;;;;1.00;1.00;12.30;99.90;;;;;;5050637;28;11375;-53
2021/12/25 07:43:19;;;;;;;;;1.00;1.00;12.30;99.90;;;;;;5057739;28;11378;-50
2021/12/25 07:46:27;;;;;;;;;1.00;1.00;12.30;99.90;;;;;;5045489;28;11888;-50
2021/12/25 07:48:58;;;;;;;;;1.00;1.00;12.20;99.90;;;;;;5051219;28;11367;-52
2021/12/25 07:51:30;;;;;;;;;3.25;1.00;12.20;99.90;;;;;;5032199;28;11390;-51
2021/12/25 07:54:00;;;;;;;;;1.25;1.25;12.20;99.90;;;;;;5051943;28;11378;-52
2021/12/25 07:56:31;;;;;;;;;2.75;2.75;12.20;99.90;;;;;;5046059;28;12194;-47
2021/12/25 07:59:01;;;;;;;;;2.25;2.25;12.20;99.90;;;;;;5050732;28;11411;-49
2021/12/25 08:01:35;;;;;;;;;1.25;1.25;12.20;99.90;;;;;;5045032;28;11392;-49
2021/12/25 08:04:06;;;;;;;;;1.50;1.50;12.20;99.90;;;;;;5046556;28;11433;-48
2021/12/25 08:06:39;;;;;;;;;0.75;0.75;12.20;99.90;;;;;;5029050;28;12129;-54
2021/12/25 08:09:17;;;;;;;;;1.00;1.00;12.20;99.90;;;;;;5046763;28;11386;-53
2021/12/25 08:11:47;;;;;;;;;1.00;1.00;12.20;99.90;;;;;;5047377;28;11382;-52
2021/12/25 08:14:20;;;;;;;;;1.00;1.00;12.20;99.90;;;;;;5054563;28;11366;-57
2021/12/25 08:16:49;;;;;;;;;1.75;1.75;12.20;99.90;;;;;;5049294;28;11408;-52
2021/12/25 08:19:21;;;;;;;;;1.00;1.00;12.20;99.90;;;;;;5043382;28;11400;-53
2021/12/25 08:22:09;;;;;;;;;0.00;0.00;12.20;99.90;;;;;;5055730;28;11524;-53
2021/12/25 08:24:58;;;;;;;;;1.00;1.00;12.20;99.90;;;;;;5058837;28;11329;-53
2021/12/25 08:27:48;;;;;;;;;5.00;5.00;12.20;99.90;;;;;;5057650;28;11432;-52
2021/12/25 08:30:31;;;;;;;;;5.25;5.25;12.20;99.90;;;;;;5057199;28;11355;-51
2021/12/25 08:33:39;;;;;;;;;5.75;5.75;12.10;99.90;;;;;;4985468;28;12460;-52
2021/12/25 08:36:29;;;;;;;;;4.75;4.75;12.20;99.90;;;;;;4991519;28;11486;-52
2021/12/25 08:38:59;;;;;;;;;0.50;0.50;12.20;99.90;;;;;;5028596;28;11461;-51
2021/12/25 08:41:31;;;;;;;;;2.00;2.00;12.20;99.90;;;;;;5052976;28;11341;-51
2021/12/25 08:44:30;;;;;;;;;0.75;0.75;12.20;99.90;;;;;;5050773;28;11324;-50
2021/12/25 08:46:59;;;;;;;;;1.75;1.75;12.10;99.90;;;;;;5051586;28;12141;-50
2021/12/25 08:49:31;;;;;;;;;0.25;0.25;12.10;99.90;;;;;;5052081;28;11394;-51
2021/12/25 08:52:08;;;;;;;;;1.25;1.25;12.10;99.90;;;;;;5051419;28;11391;-53
2021/12/25 08:54:43;;;;;;;;;1.00;1.00;12.10;99.90;;;;;;5052287;28;11344;-48
2021/12/25 08:57:14;;;;;;;;;1.00;0.75;12.10;99.90;;;;;;5056902;28;11380;-54
2021/12/25 08:59:45;;;;;;;;;2.00;2.00;12.10;99.90;;;;;;5052525;28;12932;-50
2021/12/25 09:02:17;;;;;;;;;1.00;1.00;12.10;99.90;;;;;;5034364;28;11372;-51
2021/12/25 09:04:51;;;;;;;;;1.00;1.00;12.10;99.90;;;;;;5053473;28;11415;-51
2021/12/25 09:07:27;;;;;;;;;0.25;0.25;12.10;99.90;;;;;;5050573;28;11388;-53
2021/12/25 09:09:57;;;;;;;;;1.00;1.00;12.10;99.90;;;;;;5051410;28;12124;-51
2021/12/25 09:12:29;;;;;;;;;1.00;1.00;12.10;99.90;;;;;;5039346;28;11507;-53
2021/12/25 09:14:59;;;;;;;;;0.00;0.00;12.10;99.90;;;;;;5047954;28;12003;-53
2021/12/25 09:17:30;;;;;;;;;2.00;2.00;12.10;99.90;;;;;;5052219;28;11408;-52
2021/12/25 09:20:01;;;;;;;;;0.50;0.50;12.10;99.90;;;;;;5052463;28;11375;-52
2021/12/25 09:22:33;;;;;;;;;0.00;0.00;12.00;99.90;;;;;;5036172;28;11400;-51
2021/12/25 09:25:07;;;;;;;;;0.00;0.00;12.00;99.90;;;;;;5045936;28;11381;-51
2021/12/25 09:27:40;;;;;;;;;0.00;0.00;12.10;99.90;;;;;;5054196;28;11358;-52
2021/12/25 09:30:14;;;;;;;;;0.50;0.50;12.00;99.90;;;;;;5047686;28;11352;-52
2021/12/25 09:32:44;;;;;;;;;0.00;0.00;12.00;99.90;;;;;;5053139;28;11392;-51
2021/12/25 09:35:18;;;;;;;;;0.75;0.75;12.00;99.90;;;;;;5049854;28;11374;-51
2021/12/25 09:37:49;;;;;;;;;1.00;1.00;12.00;99.90;;;;;;5051288;28;11403;-53
2021/12/25 09:40:22;;;;;;;;;0.00;0.00;12.00;99.90;;;;;;5039285;28;11537;-51
2021/12/25 09:42:55;;;;;;;;;0.50;0.50;12.00;99.90;;;;;;5058066;28;11400;-52
2021/12/25 09:45:25;;;;;;;;;2.75;1.00;12.00;99.90;;;;;;5049959;28;11816;-52
2021/12/25 09:47:58;;;;;;;;;0.00;0.00;12.00;99.90;;;;;;5049878;28;11406;-51
2021/12/25 09:50:28;;;;;;;;;0.00;0.00;12.00;99.90;;;;;;5053244;28;11475;-51
2021/12/25 09:52:59;;;;;;;;;0.00;0.00;12.00;99.90;;;;;;5055938;28;11423;-53
2021/12/25 09:55:29;;;;;;;;;1.00;1.00;12.00;99.90;;;;;;5027383;28;11425;-52
2021/12/25 09:58:00;;;;;;;;;1.00;1.00;12.00;99.90;;;;;;5047920;28;11418;-52
2021/12/25 10:00:40;;;;;;;;;0.00;0.00;12.00;99.90;;;;;;5022292;28;11398;-49
2021/12/25 10:03:26;;;;;;;;;0.00;0.00;12.00;99.90;;;;;;5054427;28;11446;-51
2021/12/25 10:05:57;;;;;;;;;1.00;0.50;11.90;99.90;;;;;;5051594;28;11421;-49
2021/12/25 10:08:27;;;;;;;;;0.25;0.00;11.90;99.90;;;;;;5050824;28;11370;-51
2021/12/25 10:11:02;;;;;;;;;0.00;0.00;11.90;99.90;;;;;;5052784;28;11423;-53
2021/12/25 10:13:42;;;;;;;;;0.00;0.00;11.90;99.90;;;;;;5038587;28;11366;-51
2021/12/25 10:16:30;;;;;;;;;0.00;0.00;11.90;99.90;;;;;;5053241;28;11440;-53
2021/12/25 10:19:17;;;;;;;;;0.50;0.50;11.90;99.90;;;;;;5049555;28;11432;-52
2021/12/25 10:21:48;;;;;;;;;1.00;1.00;11.90;99.90;;;;;;5044202;28;11415;-50
2021/12/25 10:24:27;;;;;;;;;0.00;0.00;11.90;99.90;;;;;;5038059;28;12131;-51
2021/12/25 10:27:15;;;;;;;;;0.75;0.75;11.90;99.90;;;;;;5047461;28;11432;-52
2021/12/25 10:29:45;;;;;;;;;1.75;0.00;11.90;99.90;;;;;;5048425;28;11382;-53
2021/12/25 10:32:23;;;;;;;;;0.00;0.00;11.90;99.90;;;;;;5047710;28;11367;-50
2021/12/25 10:34:54;;;;;;;;;0.00;0.00;11.90;99.90;;;;;;5049243;28;11442;-52
2021/12/25 10:37:25;;;;;;;;;0.00;0.00;11.90;99.90;;;;;;5047146;28;11405;-50
2021/12/25 10:39:55;;;;;;;;;1.00;1.00;11.90;99.90;;;;;;5052269;28;11364;-49
2021/12/25 10:42:35;;;;;;;;;0.00;0.00;11.90;99.90;;;;;;5045500;28;12150;-51
2021/12/25 10:45:12;;;;;;;;;2.00;0.00;11.90;99.90;;;;;;5054827;28;11517;-53
2021/12/25 10:47:42;;;;;;;;;0.00;0.00;11.90;99.90;;;;;;5045591;28;11480;-50
2021/12/25 10:50:23;;;;;;;;;0.25;0.25;11.90;99.90;;;;;;5047236;28;11414;-52
2021/12/25 10:52:56;;;;;;;;;0.00;0.00;11.90;99.90;;;;;;5048279;28;11408;-50
2021/12/25 10:55:27;;;;;;;;;1.00;1.00;11.90;99.90;;;;;;5050564;28;11462;-50
2021/12/25 10:58:00;;;;;;;;;1.00;1.00;11.90;99.90;;;;;;5049831;28;12252;-48
2021/12/25 11:00:36;;;;;;;;;0.00;0.00;11.80;99.90;;;;;;5051654;28;11370;-49
2021/12/25 11:03:09;;;;;;;;;0.00;0.00;11.90;99.90;;;;;;5049640;28;11348;-51
2021/12/25 11:05:46;;;;;;;;;0.00;0.00;11.90;99.90;;;;;;5051360;28;11473;-51
2021/12/25 11:08:22;;;;;;;;;0.25;0.00;11.90;99.90;;;;;;5027824;28;11381;-49
2021/12/25 11:10:56;;;;;;;;;0.00;0.00;11.80;99.90;;;;;;5047689;28;11523;-50
2021/12/25 11:13:31;;;;;;;;;0.00;0.00;11.90;99.90;;;;;;5052883;28;11467;-49
2021/12/25 11:16:32;;;;;;;;;0.00;0.00;11.80;99.90;;;;;;5050539;28;11453;-51
2021/12/25 11:19:14;;;;;;;;;0.00;0.00;11.90;99.90;;;;;;5045361;28;11590;-52
2021/12/25 11:21:49;;;;;;;;;0.00;0.00;11.90;99.90;;;;;;5042807;28;11482;-50
2021/12/25 11:24:27;;;;;;;;;0.00;0.00;11.80;99.90;;;;;;5052506;28;11423;-49
2021/12/25 11:27:04;;;;;;;;;0.00;0.00;11.80;99.90;;;;;;5051694;28;11365;-52
2021/12/25 11:29:37;;;;;;;;;1.00;0.00;11.80;99.90;;;;;;5054191;28;11465;-52
2021/12/25 11:32:12;;;;;;;;;1.00;0.00;11.90;99.90;;;;;;5032744;28;11433;-50
2021/12/25 11:34:42;;;;;;;;;0.00;0.00;11.80;99.90;;;;;;5049574;28;11420;-51
2021/12/25 11:37:14;;;;;;;;;0.00;0.00;11.80;99.90;;;;;;5051483;28;11549;-51
2021/12/25 11:39:51;;;;;;;;;0.00;0.00;11.80;99.90;;;;;;5050343;28;11619;-50
2021/12/25 11:42:28;;;;;;;;;0.00;0.00;11.80;99.90;;;;;;4695410;28;10000055;-51
2021/12/25 11:45:11;;;;;;;;;0.00;0.00;11.80;99.90;;;;;;5047580;28;9760;-50
2021/12/25 11:47:53;;;;;;;;;0.00;0.00;11.80;99.90;;;;;;5049902;28;12187;-55
2021/12/25 11:50:40;;;;;;;;;0.00;0.00;11.80;99.90;;;;;;5046863;28;11413;-52
2021/12/25 11:58:52;;;;;;;;;0.00;0.00;11.80;99.90;;;;;;5046942;28;11415;-52
2021/12/25 12:01:22;;;;;;;;;0.00;0.00;11.80;99.90;;;;;;5042417;28;11489;-50
2021/12/25 12:04:10;;;;;;;;;1.00;1.00;11.80;99.90;;;;;;5049345;28;12170;-51
2021/12/25 12:06:46;;;;;;;;;0.50;0.50;11.80;99.90;;;;;;5043279;28;11545;-51
2021/12/25 12:09:47;;;;;;;;;1.00;0.50;11.80;99.90;;;;;;5044813;28;11617;-53
2021/12/25 12:12:48;;;;;;;;;2.00;2.00;11.80;99.90;;;;;;5048809;28;11420;-49
2021/12/25 12:15:58;;;;;;;;;2.75;2.75;11.80;99.90;;;;;;5016572;28;12105;-53
2021/12/25 12:18:55;;;;;;;;;3.50;3.50;11.80;99.90;;;;;;5033652;28;11450;-51
2021/12/25 12:21:32;;;;;;;;;3.75;3.75;11.80;99.90;;;;;;5048041;28;11462;-51
2021/12/25 12:26:58;;;;;;;;;3.75;3.75;11.80;99.90;;;;;;5047285;28;11399;-48
2021/12/25 12:29:46;;;;;;;;;4.00;4.00;11.70;99.90;;;;;;5051965;28;11466;-52
2021/12/25 12:32:20;;;;;;;;;4.50;4.50;11.80;99.90;;;;;;5033983;28;11574;-50
2021/12/25 12:34:53;;;;;;;;;5.50;4.00;11.70;99.90;;;;;;5053439;28;12234;-51
2021/12/25 12:37:27;;;;;;;;;4.00;4.00;11.70;99.90;;;;;;5047854;28;11395;-51
2021/12/25 12:40:02;;;;;;;;;3.50;3.50;11.70;99.90;;;;;;5035679;28;11456;-51
2021/12/25 12:42:47;;;;;;;;;3.75;3.75;11.70;99.90;;;;;;5044461;28;11477;-52
2021/12/25 12:45:20;;;;;;;;;4.50;4.50;11.70;99.90;;;;;;5049220;28;11426;-52
2021/12/25 12:48:23;;;;;;;;;4.25;4.25;11.70;99.90;;;;;;5047188;28;11441;-51
2021/12/25 12:50:57;;;;;;;;;5.75;5.75;11.70;99.90;;;;;;5041467;28;11537;-52
2021/12/25 12:53:39;;;;;;;;;7.00;7.00;11.70;99.90;;;;;;5048322;28;11444;-51
2021/12/25 12:56:18;;;;;;;;;5.25;5.25;11.70;99.90;;;;;;5042384;28;11483;-50
2021/12/25 12:58:54;;;;;;;;;5.50;5.50;11.70;99.90;;;;;;5057699;28;11466;-51
2021/12/25 13:01:26;;;;;;;;;4.25;4.25;11.70;99.90;;;;;;5047085;28;11434;-49
2021/12/25 13:04:00;;;;;;;;;4.25;4.25;11.70;99.90;;;;;;5053672;28;11409;-51
2021/12/25 13:06:32;;;;;;;;;6.25;5.00;11.70;99.90;;;;;;5045070;28;11452;-51
2021/12/25 13:09:09;;;;;;;;;5.25;5.25;11.70;99.90;;;;;;5038461;28;11479;-52
2021/12/25 13:11:58;;;;;;;;;5.00;5.00;11.60;99.90;;;;;;5057812;28;11441;-51
2021/12/25 13:14:28;;;;;;;;;4.00;4.00;11.70;99.90;;;;;;5054703;28;11465;-51
2021/12/25 13:17:00;;;;;;;;;2.75;2.75;11.70;99.90;;;;;;5044307;28;11467;-52
2021/12/25 13:19:30;;;;;;;;;3.50;3.50;11.70;99.90;;;;;;5052416;28;11473;-48
2021/12/25 13:22:01;;;;;;;;;4.75;4.75;11.70;99.90;;;;;;5029338;28;11502;-49
2021/12/25 13:24:31;;;;;;;;;5.00;4.50;11.70;99.90;;;;;;5036344;28;11480;-50
2021/12/25 13:27:02;;;;;;;;;3.75;3.75;11.70;99.90;;;;;;5031844;28;11487;-48
2021/12/25 13:29:32;;;;;;;;;6.25;6.25;11.70;99.90;;;;;;5024362;28;11472;-52
2021/12/25 13:32:05;;;;;;;;;3.50;3.50;11.70;99.90;;;;;;5033154;28;11550;-52
2021/12/25 13:34:39;;;;;;;;;6.25;4.50;11.70;99.90;;;;;;5038811;28;11463;-48
2021/12/25 13:37:17;;;;;;;;;3.75;3.75;11.70;99.90;;;;;;5029683;28;11507;-51
2021/12/25 13:39:48;;;;;;;;;6.00;6.00;11.60;99.90;;;;;;5035180;28;11530;-52
2021/12/25 13:42:20;;;;;;;;;5.75;5.75;11.60;99.90;;;;;;5031498;28;11476;-53
2021/12/25 13:44:53;;;;;;;;;4.50;4.50;11.60;99.90;;;;;;5026333;28;11634;-54
2021/12/25 13:47:28;;;;;;;;;5.25;5.25;11.60;99.90;;;;;;5035226;28;11508;-49
2021/12/25 13:50:04;;;;;;;;;4.50;4.50;11.60;99.90;;;;;;5050486;28;11474;-51
2021/12/25 13:52:40;;;;;;;;;4.75;4.75;11.60;99.90;;;;;;5034050;28;11530;-51
2021/12/25 13:55:17;;;;;;;;;4.75;4.75;11.70;99.90;;;;;;5034445;28;11494;-50
2021/12/25 13:57:54;;;;;;;;;4.50;4.50;11.60;99.90;;;;;;5032774;28;11530;-51
2021/12/25 14:00:38;;;;;;;;;4.50;4.50;11.60;99.90;;;;;;5035784;28;11631;-52
2021/12/25 14:03:21;;;;;;;;;4.50;4.50;11.70;99.90;;;;;;5026184;28;11484;-52
2021/12/25 14:05:55;;;;;;;;;4.75;4.75;11.70;99.90;;;;;;5033021;28;11498;-53
2021/12/25 14:08:29;;;;;;;;;4.25;4.25;11.70;99.90;;;;;;5031158;28;11518;-52
2021/12/25 14:11:01;;;;;;;;;3.50;3.50;11.70;99.90;;;;;;5036707;28;11455;-54
2021/12/25 14:13:35;;;;;;;;;3.25;3.25;11.60;99.90;;;;;;5015033;28;11494;-47
2021/12/25 14:16:06;;;;;;;;;2.75;2.75;11.70;99.90;;;;;;5036112;28;11480;-53
2021/12/25 14:18:38;;;;;;;;;2.50;2.50;11.70;99.90;;;;;;5035827;28;11502;-51
2021/12/25 14:21:22;;;;;;;;;3.00;3.00;11.60;99.90;;;;;;5042145;28;11430;-51
2021/12/25 14:24:15;;;;;;;;;2.75;2.75;11.70;99.90;;;;;;5054801;28;11447;-53
2021/12/25 14:26:45;;;;;;;;;4.00;4.00;11.60;99.90;;;;;;5050514;28;11412;-51
2021/12/25 14:29:28;;;;;;;;;3.50;3.50;11.60;99.90;;;;;;5058917;28;11422;-49
2021/12/25 14:31:59;;;;;;;;;3.50;2.75;11.60;99.90;;;;;;5047073;28;11420;-51
2021/12/25 14:34:34;;;;;;;;;2.75;2.75;11.60;99.90;;;;;;5054966;28;11443;-48
2021/12/25 14:37:04;;;;;;;;;2.25;2.25;11.60;99.90;;;;;;5029742;28;11499;-53
2021/12/25 14:39:37;;;;;;;;;2.00;2.00;11.60;99.90;;;;;;5049955;28;11422;-53
2021/12/25 14:42:09;;;;;;;;;2.50;2.50;11.60;99.90;;;;;;5048417;28;13133;-53
2021/12/25 14:44:40;;;;;;;;;1.50;1.50;11.60;99.90;;;;;;5050007;28;11415;-52
2021/12/25 14:47:15;;;;;;;;;1.50;1.50;11.60;99.90;;;;;;5053247;28;11443;-52
2021/12/25 14:49:48;;;;;;;;;2.75;2.75;11.60;99.90;;;;;;5047175;28;11491;-52
2021/12/25 14:52:20;;;;;;;;;3.00;3.00;11.60;99.90;;;;;;5049920;28;11462;-53
2021/12/25 14:54:51;;;;;;;;;2.25;2.25;11.60;99.90;;;;;;5033774;28;11421;-51
2021/12/25 14:57:27;;;;;;;;;2.50;2.50;11.60;99.90;;;;;;5054224;28;11427;-51
2021/12/25 15:00:00;;;;;;;;;2.25;2.25;11.60;99.90;;;;;;5048442;28;11537;-52